Aviation Digital Data Service (ADDS)

Output produced by TAFs form (0705 UTC 18 December 2017)
found at http://aviationweather.gov/adds/tafs/
 
KIPJ 180645Z AUTO 00000KT 10SM OVC022 08/02 A3015 RMK AO2 T00750024